createdAt,value
2019-03-31T00:00:28.003Z,58.56
2019-03-31T00:02:59.440Z,59.36
2019-03-31T00:05:30.758Z,59.92
2019-03-31T00:08:02.117Z,59.07
2019-03-31T00:10:34.476Z,59.04
2019-03-31T00:13:06.125Z,59.73
2019-03-31T00:15:37.363Z,59.61
2019-03-31T00:18:08.822Z,59.96
2019-03-31T00:20:40.129Z,60.53
2019-03-31T00:23:11.426Z,60.99
2019-03-31T00:25:44.358Z,60.66
2019-03-31T00:28:15.696Z,60.45
2019-03-31T00:30:47.340Z,61.13
2019-03-31T00:33:18.615Z,60.04
2019-03-31T00:35:51.151Z,61.24
2019-03-31T00:38:22.526Z,60.28
2019-03-31T00:40:53.836Z,60.17
2019-03-31T00:43:25.222Z,60.43
2019-03-31T00:45:56.530Z,61.43
2019-03-31T00:48:27.847Z,61.25
2019-03-31T00:50:59.141Z,61.94
2019-03-31T00:53:30.448Z,62.15
2019-03-31T00:56:01.814Z,62.36
2019-03-31T00:58:33.081Z,61.90
2019-03-31T01:01:04.216Z,62.38
2019-03-31T01:03:37.654Z,62.23
2019-03-31T01:06:09.198Z,62.93
2019-03-31T01:08:40.720Z,62.33
2019-03-31T01:11:16.315Z,62.68
2019-03-31T01:13:48.277Z,62.31
2019-03-31T01:16:20.131Z,63.79
2019-03-31T01:18:51.517Z,62.98
2019-03-31T01:21:22.884Z,62.86
2019-03-31T01:23:54.250Z,63.07
2019-03-31T01:26:25.595Z,63.47
2019-03-31T01:28:57.137Z,63.53
2019-03-31T01:31:29.638Z,63.85
2019-03-31T01:34:00.952Z,63.88
2019-03-31T01:36:32.331Z,63.81
2019-03-31T01:39:04.875Z,64.05
2019-03-31T01:41:38.032Z,63.87
2019-03-31T01:44:09.337Z,63.47
2019-03-31T01:46:40.704Z,63.45
2019-03-31T01:49:11.940Z,63.71
2019-03-31T01:51:43.252Z,64.33
2019-03-31T01:54:14.615Z,63.85
2019-03-31T01:56:45.951Z,63.20
2019-03-31T01:59:17.323Z,64.14
2019-03-31T02:01:48.929Z,64.34
2019-03-31T02:04:20.317Z,64.55
2019-03-31T02:06:51.628Z,64.52
2019-03-31T02:09:24.062Z,64.09
2019-03-31T02:11:55.461Z,63.62
2019-03-31T02:14:27.889Z,64.14
2019-03-31T02:16:59.188Z,64.09
2019-03-31T02:19:30.596Z,64.87
2019-03-31T02:22:01.838Z,65.09
2019-03-31T02:24:33.213Z,65.09
2019-03-31T02:27:04.586Z,65.43
2019-03-31T02:29:35.905Z,65.58
2019-03-31T02:32:22.677Z,65.29
2019-03-31T02:34:40.291Z,65.63
2019-03-31T02:37:11.534Z,65.70
2019-03-31T02:39:42.834Z,65.82
2019-03-31T02:42:14.062Z,65.67
2019-03-31T02:44:45.428Z,65.87
2019-03-31T02:47:16.737Z,66.12
2019-03-31T02:49:48.105Z,65.77
2019-03-31T02:52:19.418Z,65.67
2019-03-31T02:54:51.344Z,65.53
2019-03-31T02:57:23.997Z,65.92
2019-03-31T02:59:56.551Z,66.29
2019-03-31T03:02:41.321Z,66.29
2019-03-31T03:05:18.378Z,66.32
2019-03-31T03:07:40.157Z,66.46
2019-03-31T03:10:13.544Z,66.61
2019-03-31T03:12:48.113Z,66.67
2019-03-31T03:15:29.423Z,66.57
2019-03-31T03:18:01.821Z,66.87
2019-03-31T03:20:33.155Z,67.27
2019-03-31T03:23:04.456Z,67.49
2019-03-31T03:25:35.815Z,67.54
2019-03-31T03:28:07.067Z,67.81
2019-03-31T03:30:38.552Z,67.95
2019-03-31T03:33:15.932Z,68.17
2019-03-31T03:35:42.859Z,68.48
2019-03-31T03:38:14.103Z,69.07
2019-03-31T03:40:45.434Z,69.14
2019-03-31T03:43:16.660Z,69.50
2019-03-31T03:45:47.975Z,70.04
2019-03-31T03:48:19.342Z,70.06
2019-03-31T03:50:50.729Z,69.88
2019-03-31T03:53:22.016Z,69.11
2019-03-31T03:55:53.296Z,68.76
2019-03-31T03:58:24.604Z,68.67
2019-03-31T04:00:56.044Z,69.01
2019-03-31T04:03:30.683Z,69.44
2019-03-31T04:06:00.416Z,69.53
2019-03-31T04:08:31.659Z,69.68
2019-03-31T04:11:12.958Z,69.40
2019-03-31T04:13:44.256Z,69.08
2019-03-31T04:16:15.686Z,68.50
2019-03-31T04:18:46.984Z,68.57
2019-03-31T04:21:18.473Z,68.21
2019-03-31T04:23:49.783Z,68.76
2019-03-31T04:26:22.208Z,69.23
2019-03-31T04:28:53.699Z,69.44
2019-03-31T04:31:25.106Z,69.09
2019-03-31T04:33:56.384Z,69.10
2019-03-31T04:36:27.856Z,69.99
2019-03-31T04:39:00.425Z,70.76
2019-03-31T04:41:32.876Z,71.13
2019-03-31T04:44:04.114Z,71.59
2019-03-31T04:46:35.485Z,71.83
2019-03-31T04:49:06.790Z,71.44
2019-03-31T04:51:38.124Z,70.64
2019-03-31T04:54:09.424Z,70.90
2019-03-31T04:56:42.020Z,71.06
2019-03-31T04:59:13.398Z,71.30
2019-03-31T05:01:44.827Z,71.08
2019-03-31T05:04:16.054Z,71.40
2019-03-31T05:06:47.419Z,71.54
2019-03-31T05:09:18.654Z,70.97
2019-03-31T05:11:50.029Z,70.50
2019-03-31T05:14:22.576Z,70.46
2019-03-31T05:16:53.872Z,70.75
2019-03-31T05:19:25.113Z,71.11
2019-03-31T05:21:56.776Z,70.79
2019-03-31T05:24:30.626Z,70.42
2019-03-31T05:27:04.790Z,70.76
2019-03-31T05:29:36.070Z,70.91
2019-03-31T05:32:07.369Z,70.99
2019-03-31T05:34:38.606Z,70.72
2019-03-31T05:37:10.106Z,71.18
2019-03-31T05:39:41.414Z,71.09
2019-03-31T05:42:13.854Z,71.46
2019-03-31T05:44:45.095Z,71.60
2019-03-31T05:47:16.456Z,71.67
2019-03-31T05:49:47.758Z,71.38
2019-03-31T05:52:19.060Z,71.45
2019-03-31T05:54:50.303Z,71.41
2019-03-31T05:57:24.937Z,70.99
2019-03-31T05:59:56.260Z,70.64
2019-03-31T06:02:29.614Z,70.72
2019-03-31T06:05:01.116Z,70.53
2019-03-31T06:07:33.680Z,70.64
2019-03-31T06:10:07.450Z,69.86
2019-03-31T06:12:51.325Z,69.49
2019-03-31T06:15:22.551Z,69.44
2019-03-31T06:17:53.945Z,69.78
2019-03-31T06:20:25.251Z,69.49
2019-03-31T06:22:56.815Z,69.33
2019-03-31T06:25:28.210Z,69.82
2019-03-31T06:27:59.589Z,69.77
2019-03-31T06:30:30.963Z,70.10
2019-03-31T06:33:02.249Z,69.72
2019-03-31T06:35:33.470Z,69.75
2019-03-31T06:38:13.135Z,69.27
2019-03-31T06:40:46.069Z,69.11
2019-03-31T06:43:17.699Z,68.58
2019-03-31T06:45:49.130Z,68.69
2019-03-31T06:48:25.189Z,69.22
2019-03-31T06:50:58.658Z,69.26
2019-03-31T06:53:29.947Z,69.49
2019-03-31T06:56:01.655Z,69.47
2019-03-31T06:58:33.179Z,69.09
2019-03-31T07:01:04.484Z,69.03
2019-03-31T07:03:35.791Z,68.95
2019-03-31T07:06:07.130Z,68.62
2019-03-31T07:08:38.419Z,68.23
2019-03-31T07:11:09.663Z,68.12
2019-03-31T07:13:41.116Z,68.39
2019-03-31T07:16:12.451Z,67.42
2019-03-31T07:18:43.901Z,67.26
2019-03-31T07:21:20.023Z,69.64
2019-03-31T07:23:51.436Z,69.62
2019-03-31T07:26:22.683Z,69.42
2019-03-31T07:28:54.142Z,68.79
2019-03-31T07:31:37.770Z,68.55
2019-03-31T07:34:10.124Z,68.05
2019-03-31T07:36:48.394Z,67.90
2019-03-31T07:39:21.101Z,67.18
2019-03-31T07:41:53.459Z,66.56
2019-03-31T07:44:26.135Z,65.78
2019-03-31T07:46:58.653Z,65.61
2019-03-31T07:49:29.996Z,64.97
2019-03-31T07:52:01.673Z,65.21
2019-03-31T07:54:50.346Z,64.20
2019-03-31T07:57:21.636Z,64.16
2019-03-31T07:59:56.309Z,64.59
2019-03-31T08:02:26.328Z,64.01
2019-03-31T08:04:57.709Z,63.18
2019-03-31T08:07:29.189Z,62.38
2019-03-31T08:10:00.459Z,61.59
2019-03-31T08:12:36.145Z,60.89
2019-03-31T08:15:13.317Z,61.00
2019-03-31T08:17:44.646Z,59.11
2019-03-31T08:20:18.926Z,58.66
2019-03-31T08:22:50.187Z,59.12
2019-03-31T08:25:26.676Z,59.13
2019-03-31T08:27:57.908Z,58.64
2019-03-31T08:30:29.231Z,58.95
2019-03-31T08:33:00.683Z,58.37
2019-03-31T08:35:46.263Z,58.00
2019-03-31T08:38:05.087Z,57.76
2019-03-31T08:40:37.586Z,58.12
2019-03-31T08:43:19.203Z,58.23
2019-03-31T08:45:52.220Z,56.22
2019-03-31T08:48:23.552Z,55.13
2019-03-31T08:50:55.093Z,54.77
2019-03-31T08:53:26.592Z,54.20
2019-03-31T08:55:57.900Z,53.23
2019-03-31T08:58:29.337Z,52.45
2019-03-31T09:01:02.495Z,52.37
2019-03-31T09:03:33.995Z,52.05
2019-03-31T09:06:10.002Z,51.82
2019-03-31T09:08:43.987Z,51.85
2019-03-31T09:11:15.539Z,50.91
2019-03-31T09:13:47.099Z,50.88
2019-03-31T09:16:18.639Z,51.12
2019-03-31T09:21:52.658Z,48.71
2019-03-31T09:24:24.102Z,48.49
2019-03-31T09:27:05.120Z,49.13
2019-03-31T09:29:36.827Z,47.10
2019-03-31T09:32:17.172Z,46.30
2019-03-31T09:34:48.641Z,45.72
2019-03-31T09:37:22.896Z,47.08
2019-03-31T09:39:55.782Z,48.10
2019-03-31T09:42:29.275Z,45.21
2019-03-31T09:45:02.666Z,44.63
2019-03-31T09:47:36.227Z,44.10
2019-03-31T09:50:17.195Z,44.40
2019-03-31T09:52:50.846Z,42.57
2019-03-31T09:55:23.232Z,42.57
2019-03-31T09:57:59.232Z,42.09
2019-03-31T10:00:48.984Z,42.47
2019-03-31T10:03:21.309Z,41.54
2019-03-31T10:05:52.795Z,40.38
2019-03-31T10:08:24.418Z,42.10
2019-03-31T10:10:58.634Z,41.25
2019-03-31T10:13:29.990Z,40.61
2019-03-31T10:16:05.586Z,41.41
2019-03-31T10:18:38.061Z,39.22
2019-03-31T10:21:12.127Z,40.36
2019-03-31T10:23:48.482Z,40.36
2019-03-31T10:26:32.248Z,38.77
2019-03-31T10:29:03.121Z,37.41
2019-03-31T10:31:34.510Z,36.35
2019-03-31T10:34:06.342Z,36.09
2019-03-31T10:36:44.623Z,36.56
2019-03-31T10:39:13.500Z,37.79
2019-03-31T10:41:45.249Z,35.64
2019-03-31T10:44:16.626Z,37.25
2019-03-31T10:46:47.953Z,34.87
2019-03-31T10:49:19.562Z,34.35
2019-03-31T10:51:51.173Z,34.64
2019-03-31T10:54:22.521Z,34.84
2019-03-31T10:56:54.000Z,37.97
2019-03-31T10:59:27.033Z,35.97
2019-03-31T11:01:58.541Z,35.62
2019-03-31T11:04:32.288Z,33.81
2019-03-31T11:07:07.450Z,33.85
2019-03-31T11:09:38.977Z,34.91
2019-03-31T11:12:11.803Z,32.59
2019-03-31T11:14:43.123Z,33.80
2019-03-31T11:17:14.594Z,31.75
2019-03-31T11:19:46.041Z,33.46
2019-03-31T11:22:30.901Z,35.17
2019-03-31T11:25:19.945Z,32.91
2019-03-31T11:27:39.615Z,32.67
2019-03-31T11:30:11.840Z,30.79
2019-03-31T11:32:43.249Z,33.12
2019-03-31T11:35:14.981Z,30.68
2019-03-31T11:37:47.531Z,29.52
2019-03-31T11:40:21.839Z,29.79
2019-03-31T11:42:53.166Z,28.56
2019-03-31T11:45:24.631Z,28.76
2019-03-31T11:47:56.507Z,26.78
2019-03-31T11:50:27.903Z,26.51
2019-03-31T11:52:59.345Z,27.72
2019-03-31T11:55:30.969Z,30.57
2019-03-31T11:58:02.506Z,28.57
2019-03-31T12:00:35.552Z,27.90
2019-03-31T12:03:06.998Z,26.29
2019-03-31T12:05:38.445Z,25.36
2019-03-31T12:08:10.953Z,27.12
2019-03-31T12:10:42.337Z,26.05
2019-03-31T12:13:13.796Z,26.79
2019-03-31T12:15:45.285Z,25.98
2019-03-31T12:18:16.748Z,21.59
2019-03-31T12:20:48.126Z,21.10
2019-03-31T12:23:24.677Z,26.59
2019-03-31T12:25:58.371Z,23.84
2019-03-31T12:28:32.898Z,24.56
2019-03-31T12:31:14.533Z,26.91
2019-03-31T12:33:46.101Z,24.96
2019-03-31T12:36:17.557Z,24.35
2019-03-31T12:38:49.480Z,23.44
2019-03-31T12:41:22.808Z,21.71
2019-03-31T12:43:54.306Z,21.95
2019-03-31T12:46:29.038Z,21.72
2019-03-31T12:48:59.258Z,23.15
2019-03-31T12:51:32.277Z,22.19
2019-03-31T12:54:07.290Z,25.77
2019-03-31T12:56:38.821Z,24.12
2019-03-31T12:59:10.488Z,24.09
2019-03-31T13:01:44.446Z,24.14
2019-03-31T13:04:15.582Z,21.86
2019-03-31T13:06:47.956Z,24.65
2019-03-31T13:09:19.676Z,22.43
2019-03-31T13:11:51.398Z,25.86
2019-03-31T13:14:23.190Z,23.20
2019-03-31T13:16:57.319Z,23.17
2019-03-31T13:19:41.599Z,23.14
2019-03-31T13:22:27.816Z,23.07
2019-03-31T13:25:13.605Z,24.14
2019-03-31T13:27:48.039Z,21.92
2019-03-31T13:30:31.111Z,22.66
2019-03-31T13:33:06.006Z,23.08
2019-03-31T13:35:45.506Z,21.41
2019-03-31T13:38:35.071Z,19.72
2019-03-31T13:41:52.665Z,20.18
2019-03-31T13:47:58.780Z,22.66
2019-03-31T13:50:33.513Z,22.56
2019-03-31T13:53:32.040Z,20.83
2019-03-31T13:58:59.080Z,20.76
2019-03-31T14:01:31.100Z,22.00
2019-03-31T14:04:07.979Z,22.36
2019-03-31T14:09:44.610Z,20.73
2019-03-31T14:12:19.326Z,20.90
2019-03-31T14:14:50.791Z,20.97
2019-03-31T14:17:24.540Z,18.90
2019-03-31T14:20:05.612Z,19.82
2019-03-31T14:22:41.708Z,18.85
2019-03-31T14:25:13.189Z,21.69
2019-03-31T14:28:05.230Z,22.00
2019-03-31T14:30:40.499Z,21.75
2019-03-31T14:33:11.952Z,21.54
2019-03-31T14:35:43.453Z,21.52
2019-03-31T14:38:14.924Z,23.07
2019-03-31T14:40:46.335Z,20.91
2019-03-31T14:43:17.875Z,22.51
2019-03-31T14:45:49.307Z,21.46
2019-03-31T14:48:20.679Z,21.69
2019-03-31T14:50:52.039Z,19.36
2019-03-31T14:53:23.778Z,21.16
2019-03-31T14:55:55.041Z,25.21
2019-03-31T14:58:27.556Z,19.92
2019-03-31T15:01:08.769Z,19.76
2019-03-31T15:03:40.361Z,20.80
2019-03-31T15:06:11.660Z,22.16
2019-03-31T15:08:54.194Z,19.66
2019-03-31T15:11:22.112Z,20.18
2019-03-31T15:13:53.863Z,21.47
2019-03-31T15:16:25.626Z,20.97
2019-03-31T15:18:57.025Z,23.01
2019-03-31T15:21:28.315Z,22.37
2019-03-31T15:24:00.280Z,24.19
2019-03-31T15:26:31.758Z,20.16
2019-03-31T15:29:03.278Z,21.55
2019-03-31T15:31:34.525Z,21.76
2019-03-31T15:34:06.172Z,23.40
2019-03-31T15:36:37.645Z,22.53
2019-03-31T15:39:10.383Z,22.56
2019-03-31T15:41:43.518Z,23.50
2019-03-31T15:44:15.317Z,22.52
2019-03-31T15:46:46.743Z,21.17
2019-03-31T15:49:18.337Z,21.97
2019-03-31T15:51:54.869Z,20.27
2019-03-31T15:54:28.016Z,22.58
2019-03-31T15:57:02.669Z,20.63
2019-03-31T15:59:38.631Z,21.76
2019-03-31T16:02:39.176Z,22.64
2019-03-31T16:08:31.783Z,25.77
2019-03-31T16:11:54.311Z,22.41
2019-03-31T16:14:06.092Z,24.98
2019-03-31T16:14:27.891Z,22.95
2019-03-31T16:17:00.054Z,23.85
2019-03-31T16:19:40.164Z,25.10
2019-03-31T16:22:17.158Z,25.53
2019-03-31T16:25:24.270Z,24.12
2019-03-31T16:28:00.089Z,26.81
2019-03-31T16:30:35.812Z,24.21
2019-03-31T16:33:07.543Z,24.25
2019-03-31T16:35:38.948Z,21.98
2019-03-31T16:38:11.443Z,22.91
2019-03-31T16:40:42.690Z,23.24
2019-03-31T16:43:14.110Z,24.17
2019-03-31T16:45:45.617Z,23.03
2019-03-31T16:48:18.439Z,23.38
2019-03-31T16:50:55.894Z,25.52
2019-03-31T16:59:53.843Z,25.97
2019-03-31T17:02:25.677Z,27.35
2019-03-31T17:04:57.292Z,26.47
2019-03-31T17:07:33.939Z,26.49
2019-03-31T17:10:48.743Z,26.12
2019-03-31T17:13:07.126Z,30.38
2019-03-31T17:15:43.153Z,37.08
2019-03-31T17:18:22.443Z,38.92
2019-03-31T17:20:55.694Z,39.94
2019-03-31T17:23:32.776Z,40.48
2019-03-31T17:26:13.308Z,40.77
2019-03-31T17:28:50.022Z,41.63
2019-03-31T17:31:23.409Z,42.11
2019-03-31T17:33:55.524Z,42.85
2019-03-31T17:36:28.854Z,43.75
2019-03-31T17:39:11.242Z,43.94
2019-03-31T17:41:44.609Z,44.68
2019-03-31T17:44:19.818Z,44.93
2019-03-31T17:46:51.818Z,45.38
2019-03-31T17:49:26.068Z,45.63
2019-03-31T17:52:04.183Z,45.83
2019-03-31T17:54:37.463Z,46.88
2019-03-31T17:57:10.655Z,46.62
2019-03-31T17:59:51.791Z,47.16
2019-03-31T18:02:25.055Z,47.79
2019-03-31T18:05:02.288Z,48.07
2019-03-31T18:07:50.629Z,48.29
2019-03-31T18:10:25.706Z,48.80
2019-03-31T18:13:07.591Z,49.30
2019-03-31T18:15:52.117Z,49.51
2019-03-31T18:18:34.802Z,49.93
2019-03-31T18:21:10.086Z,50.06
2019-03-31T18:23:57.376Z,50.00
2019-03-31T18:26:35.673Z,50.70
2019-03-31T18:29:09.276Z,51.35
2019-03-31T18:31:41.088Z,51.47
2019-03-31T18:34:17.169Z,51.60
2019-03-31T18:36:53.948Z,52.39
2019-03-31T18:39:26.602Z,51.89
2019-03-31T18:42:01.526Z,52.17
2019-03-31T18:44:34.822Z,52.33
2019-03-31T18:47:06.261Z,52.52
2019-03-31T18:49:37.676Z,52.99
2019-03-31T18:52:10.535Z,53.34
2019-03-31T18:54:56.701Z,53.62
2019-03-31T18:57:46.088Z,53.99
2019-03-31T19:00:27.651Z,54.74
2019-03-31T19:03:12.630Z,55.13
2019-03-31T19:05:44.921Z,55.72
2019-03-31T19:08:26.946Z,56.51
2019-03-31T19:11:16.055Z,56.89
2019-03-31T19:13:55.502Z,56.97
2019-03-31T19:16:34.181Z,57.05
2019-03-31T19:19:13.205Z,57.02
2019-03-31T19:22:03.199Z,58.57
2019-03-31T19:24:36.028Z,58.13
2019-03-31T19:27:24.841Z,57.87
2019-03-31T19:29:57.881Z,57.82
2019-03-31T19:32:46.770Z,58.51
2019-03-31T19:35:26.038Z,58.04
2019-03-31T19:38:02.285Z,58.22
2019-03-31T19:40:35.722Z,58.77
2019-03-31T19:43:25.481Z,58.85
2019-03-31T19:46:05.051Z,58.67
2019-03-31T19:48:41.939Z,58.69
2019-03-31T19:51:23.676Z,58.45
2019-03-31T19:54:13.650Z,57.83
2019-03-31T19:56:55.479Z,57.95
2019-03-31T19:59:38.610Z,58.06
2019-03-31T20:02:10.831Z,58.23
2019-03-31T20:04:56.079Z,58.29
2019-03-31T20:07:45.159Z,58.67
2019-03-31T20:10:27.226Z,58.35
2019-03-31T20:13:13.366Z,58.36
2019-03-31T20:16:04.380Z,58.27
2019-03-31T20:18:55.483Z,58.42
2019-03-31T20:21:37.353Z,58.54
2019-03-31T20:24:25.256Z,58.85
2019-03-31T20:27:16.127Z,59.05
2019-03-31T20:29:51.914Z,59.24
2019-03-31T20:32:27.871Z,59.67
2019-03-31T20:35:17.011Z,59.82
2019-03-31T20:38:04.585Z,59.82
2019-03-31T20:40:43.544Z,60.08
2019-03-31T20:43:16.550Z,60.06
2019-03-31T20:45:48.073Z,60.17
2019-03-31T20:48:19.334Z,60.36
2019-03-31T20:50:51.032Z,60.66
2019-03-31T20:53:22.459Z,60.49
2019-03-31T20:55:53.837Z,60.78
2019-03-31T20:58:25.442Z,60.80
2019-03-31T21:00:56.692Z,61.07
2019-03-31T21:03:28.068Z,61.82
2019-03-31T21:05:59.547Z,61.31
2019-03-31T21:08:31.059Z,61.38
2019-03-31T21:11:02.380Z,61.35
2019-03-31T21:13:33.802Z,61.79
2019-03-31T21:16:05.294Z,61.75
2019-03-31T21:18:36.667Z,62.06
2019-03-31T21:21:08.029Z,61.88
2019-03-31T21:23:39.457Z,62.06
2019-03-31T21:26:10.953Z,62.16
2019-03-31T21:28:42.383Z,62.45
2019-03-31T21:31:13.648Z,62.51
2019-03-31T21:33:45.168Z,62.71
2019-03-31T21:36:16.630Z,62.62
2019-03-31T21:38:48.078Z,62.79
2019-03-31T21:41:19.401Z,63.03
2019-03-31T21:43:50.776Z,62.93
2019-03-31T21:46:22.168Z,63.42
2019-03-31T21:48:53.558Z,63.47
2019-03-31T21:51:24.874Z,63.33
2019-03-31T21:53:57.194Z,63.49
2019-03-31T21:56:28.666Z,63.66
2019-03-31T21:59:00.010Z,63.99
2019-03-31T22:01:32.415Z,63.96
2019-03-31T22:04:04.129Z,64.29
2019-03-31T22:06:35.671Z,64.19
2019-03-31T22:09:09.864Z,64.45
2019-03-31T22:11:44.692Z,64.31
2019-03-31T22:14:17.680Z,64.50
2019-03-31T22:16:49.088Z,64.90
2019-03-31T22:19:20.504Z,64.77
2019-03-31T22:21:51.920Z,65.22
2019-03-31T22:24:23.234Z,65.45
2019-03-31T22:26:54.838Z,65.37
2019-03-31T22:29:26.141Z,65.35
2019-03-31T22:31:57.555Z,65.52
2019-03-31T22:34:28.873Z,65.68
2019-03-31T22:37:02.756Z,65.93
2019-03-31T22:39:34.076Z,65.64
2019-03-31T22:42:05.820Z,65.72
2019-03-31T22:44:37.205Z,66.02
2019-03-31T22:47:08.603Z,65.89
2019-03-31T22:49:40.045Z,65.95
2019-03-31T22:52:11.485Z,66.04
2019-03-31T22:54:42.797Z,66.10
2019-03-31T22:57:14.163Z,66.21
2019-03-31T22:59:45.634Z,66.55
2019-03-31T23:02:17.072Z,66.33
2019-03-31T23:04:48.308Z,66.41
2019-03-31T23:07:19.789Z,66.55
2019-03-31T23:09:51.049Z,66.75
2019-03-31T23:12:22.338Z,66.75
2019-03-31T23:14:53.597Z,66.89
2019-03-31T23:17:25.944Z,66.97
2019-03-31T23:19:57.188Z,66.97
2019-03-31T23:22:28.489Z,67.15
2019-03-31T23:24:59.732Z,67.44
2019-03-31T23:27:31.034Z,67.33
2019-03-31T23:30:02.442Z,67.36
2019-03-31T23:32:34.981Z,67.56
2019-03-31T23:35:08.039Z,67.63
2019-03-31T23:37:39.403Z,67.48
2019-03-31T23:40:10.717Z,67.67
2019-03-31T23:42:42.030Z,67.75
2019-03-31T23:45:13.425Z,67.87
2019-03-31T23:47:44.813Z,67.96
2019-03-31T23:50:17.701Z,68.15
2019-03-31T23:52:49.001Z,68.56
2019-03-31T23:55:20.505Z,68.23
2019-03-31T23:57:51.746Z,68.34
